Time;durP1;ratioP1;P1;durP2;ratioP2;P2;SDS_P1;SDS_P2;PMS_P1;PMS_P2;Temp;Humidity;BMP_temperature;BMP_pressure;BME280_temperature;BME280_humidity;BME280_pressure;Samples;Min_cycle;Max_cycle;Signal;HPM_P1;HPM_P2
2021/11/12 00:12:30;;;;;;;39.92;27.75;;;;;;;7.92;100.00;102158.97;5237845;28;20509;-69
2021/11/12 00:15:03;;;;;;;43.25;30.30;;;;;;;7.82;100.00;102160.38;5237613;28;20033;-69
2021/11/12 00:17:35;;;;;;;42.40;29.73;;;;;;;7.87;100.00;102157.50;5239315;28;20021;-69
2021/11/12 00:20:07;;;;;;;43.53;30.40;;;;;;;7.78;100.00;102156.22;5238950;28;20327;-69
2021/11/12 00:22:38;;;;;;;41.60;30.38;;;;;;;7.67;100.00;102153.34;5236796;28;20044;-69
2021/11/12 00:25:09;;;;;;;42.17;31.15;;;;;;;7.68;100.00;102153.25;5237993;28;20333;-69
2021/11/12 00:27:41;;;;;;;44.45;31.70;;;;;;;7.64;100.00;102141.28;5237215;28;20037;-69
2021/11/12 00:33:11;;;;;;;46.55;31.65;;;;;;;7.56;100.00;102136.47;5239067;28;20057;-69
2021/11/12 00:35:47;;;;;;;44.42;31.52;;;;;;;7.54;100.00;102133.09;5238364;28;20071;-69
2021/11/12 00:38:24;;;;;;;45.42;31.38;;;;;;;7.61;100.00;102135.38;5243590;28;20041;-69
2021/11/12 00:41:11;;;;;;;46.30;32.05;;;;;;;7.55;100.00;102131.34;5240508;28;20038;-69
2021/11/12 00:43:48;;;;;;;45.13;31.70;;;;;;;7.51;100.00;102124.59;5240987;28;20537;-69
2021/11/12 00:46:44;;;;;;;45.78;33.20;;;;;;;7.52;100.00;102123.66;5242810;28;20059;-69
2021/11/12 00:49:17;;;;;;;;;;;;;;;8.07;100.00;102120.78;5241280;28;20029;-69
2021/11/12 00:51:54;;;;;;;46.10;32.22;;;;;;;7.46;100.00;102109.19;5243592;28;19920;-69
2021/11/12 00:54:26;;;;;;;47.42;31.92;;;;;;;7.44;100.00;102113.63;5241110;28;20442;-69
2021/11/12 00:56:57;;;;;;;46.03;31.65;;;;;;;7.44;100.00;102120.63;5242249;28;20047;-69
2021/11/12 00:59:28;;;;;;;45.35;31.88;;;;;;;7.41;100.00;102115.56;5243263;28;20040;-69
2021/11/12 01:02:00;;;;;;;46.42;31.83;;;;;;;7.36;100.00;102105.38;5241346;28;20032;-69
2021/11/12 01:04:31;;;;;;;50.10;31.08;;;;;;;7.29;100.00;102109.19;5241729;28;20147;-69
2021/11/12 01:07:03;;;;;;;48.90;32.00;;;;;;;7.26;100.00;102107.59;5242361;28;20033;-69
2021/11/12 01:09:34;;;;;;;46.30;31.60;;;;;;;7.22;100.00;102108.66;5241734;28;20033;-69
2021/11/12 01:12:06;;;;;;;48.53;31.65;;;;;;;7.22;100.00;102105.22;5242119;28;20033;-69
2021/11/12 01:14:37;;;;;;;44.83;30.20;;;;;;;7.20;100.00;102101.84;5234785;28;20471;-69
2021/11/12 01:17:10;;;;;;;49.10;32.33;;;;;;;7.18;100.00;102101.91;5241031;28;20029;-69
2021/11/12 01:19:41;;;;;;;52.10;32.13;;;;;;;7.12;100.00;102103.97;5241839;28;20053;-69
2021/11/12 01:22:12;;;;;;;48.40;32.03;;;;;;;7.13;100.00;102103.09;5242184;28;21058;-69
2021/11/12 01:24:45;;;;;;;49.20;31.75;;;;;;;7.09;100.00;102105.00;5241233;28;20112;-69
2021/11/12 01:27:16;;;;;;;50.25;33.05;;;;;;;7.11;100.00;102110.97;5239912;28;20463;-69
2021/11/12 01:29:48;;;;;;;45.70;30.23;;;;;;;7.03;100.00;102100.09;5240457;28;20048;-69
2021/11/12 01:32:23;;;;;;;48.15;31.77;;;;;;;7.00;100.00;102095.84;5241378;28;20039;-69
2021/11/12 01:34:56;;;;;;;43.03;30.08;;;;;;;6.99;100.00;102088.97;5241517;28;20541;-69
2021/11/12 01:37:29;;;;;;;44.72;29.15;;;;;;;6.94;100.00;102097.94;5241384;28;20115;-69
2021/11/12 01:40:06;;;;;;;42.78;30.80;;;;;;;6.88;100.00;102085.22;5239646;28;20027;-69
2021/11/12 01:43:16;;;;;;;42.72;31.25;;;;;;;7.06;100.00;102090.34;5240866;28;20055;-69
2021/11/12 01:48:42;;;;;;;47.22;29.85;;;;;;;6.65;100.00;102075.91;5239722;28;20038;-69
2021/11/12 01:51:25;;;;;;;48.15;31.38;;;;;;;6.61;100.00;102077.81;5241755;28;20021;-69
2021/11/12 01:59:26;;;;;;;45.90;30.17;;;;;;;6.52;100.00;102068.72;5240511;28;20037;-69
2021/11/12 02:02:02;;;;;;;41.70;30.10;;;;;;;6.46;100.00;102062.94;5240909;28;20474;-69
2021/11/12 02:04:37;;;;;;;44.20;29.83;;;;;;;6.42;100.00;102062.25;5239410;28;20037;-69
2021/11/12 02:07:11;;;;;;;43.65;29.27;;;;;;;6.34;100.00;102059.16;5241578;28;20032;-69
2021/11/12 02:09:42;;;;;;;46.85;29.98;;;;;;;6.30;100.00;102048.06;5240254;28;20048;-69
2021/11/12 02:12:29;;;;;;;41.30;28.25;;;;;;;6.29;100.00;102050.75;5238953;28;20029;-69
2021/11/12 02:15:01;;;;;;;42.45;29.80;;;;;;;6.23;100.00;102053.63;5240059;28;20025;-69
2021/11/12 02:17:35;;;;;;;45.47;29.00;;;;;;;6.15;100.00;102047.94;5238199;28;20029;-69
2021/11/12 02:22:46;;;;;;;41.00;27.95;;;;;;;6.03;100.00;102032.00;5240068;28;20479;-69
2021/11/12 02:25:29;;;;;;;45.92;29.63;;;;;;;5.97;100.00;102027.06;5238996;28;20029;-69
2021/11/12 02:28:08;;;;;;;41.63;28.90;;;;;;;5.93;100.00;102025.53;5239143;28;20113;-69
2021/11/12 02:30:43;;;;;;;41.78;29.00;;;;;;;5.91;100.00;102032.53;5240782;28;20028;-69
2021/11/12 02:33:17;;;;;;;43.03;28.25;;;;;;;5.94;100.00;102040.22;5239192;28;20114;-69
2021/11/12 02:36:02;;;;;;;43.42;28.30;;;;;;;6.08;100.00;102040.41;5239025;28;20507;-68
2021/11/12 02:38:40;;;;;;;43.15;28.60;;;;;;;5.97;100.00;102050.47;5236852;28;20029;-69
2021/11/12 02:41:12;;;;;;;42.35;29.02;;;;;;;5.78;100.00;102054.81;5238063;28;20039;-69
2021/11/12 02:43:46;;;;;;;42.40;27.70;;;;;;;5.81;100.00;102055.50;5239095;28;20029;-69
2021/11/12 02:46:21;;;;;;;42.85;28.13;;;;;;;5.74;100.00;102037.66;5239045;28;20104;-69
2021/11/12 02:48:53;;;;;;;39.67;28.15;;;;;;;5.74;100.00;102038.50;5240279;28;20063;-69
2021/11/12 02:51:31;;;;;;;42.97;29.67;;;;;;;5.90;100.00;102035.19;5238783;28;20116;-69
2021/11/12 02:54:06;;;;;;;47.45;29.42;;;;;;;5.82;100.00;102032.94;5231956;28;20499;-69
2021/11/12 02:56:38;;;;;;;43.75;28.83;;;;;;;5.75;100.00;102028.94;5241622;28;20025;-69
2021/11/12 02:59:12;;;;;;;45.25;29.35;;;;;;;5.81;100.00;102029.50;5242037;28;20405;-69
2021/11/12 03:01:46;;;;;;;43.47;27.70;;;;;;;5.82;100.00;102025.13;5240313;28;20430;-68
2021/11/12 03:04:22;;;;;;;44.63;29.23;;;;;;;5.80;100.00;102022.63;5237863;28;20155;-69
2021/11/12 03:06:55;;;;;;;49.65;32.08;;;;;;;5.74;100.00;102022.06;5239228;28;20033;-69
2021/11/12 03:09:29;;;;;;;49.35;30.40;;;;;;;5.78;100.00;102019.25;5240592;28;20041;-69
2021/11/12 03:12:03;;;;;;;45.83;30.85;;;;;;;5.69;100.00;102014.47;5238617;28;20025;-69
2021/11/12 03:14:35;;;;;;;45.10;30.55;;;;;;;5.60;100.00;102010.50;5238644;28;20025;-69
2021/11/12 03:17:07;;;;;;;42.55;31.35;;;;;;;5.57;100.00;102000.28;5237591;28;20078;-69
2021/11/12 03:19:38;;;;;;;50.03;31.33;;;;;;;5.54;100.00;102002.16;5238031;28;20033;-69
2021/11/12 03:22:15;;;;;;;45.53;31.45;;;;;;;5.52;100.00;101998.78;5238950;28;20032;-69
2021/11/12 03:24:50;;;;;;;46.38;30.30;;;;;;;5.51;100.00;101997.94;5239533;28;20121;-70
2021/11/12 03:27:30;;;;;;;46.40;31.83;;;;;;;5.43;100.00;101991.41;5236576;28;20524;-69
2021/11/12 03:30:35;;;;;;;48.65;32.78;;;;;;;5.42;100.00;101987.09;5239072;28;20025;-69
2021/11/12 03:49:45;;;;;;;48.40;32.83;;;;;;;5.17;100.00;101969.19;5240600;28;20030;-69
2021/11/12 03:56:29;;;;;;;51.30;32.53;;;;;;;5.19;100.00;101968.22;5239692;28;20033;-70
2021/11/12 04:01:52;;;;;;;51.75;32.15;;;;;;;5.16;100.00;101972.69;5237427;28;20116;-69
2021/11/12 04:04:35;;;;;;;52.15;34.30;;;;;;;5.16;100.00;101973.53;5238011;28;20041;-69
2021/11/12 04:41:28;;;;;;;58.10;35.67;;;;;;;4.83;100.00;101903.97;5241264;28;20394;-69
2021/11/12 04:49:23;;;;;;;60.40;36.20;;;;;;;4.74;100.00;101893.16;5239785;28;20072;-69
2021/11/12 05:50:53;;;;;;;46.33;29.60;;;;;;;4.18;100.00;101803.88;5240941;28;20494;-69
2021/11/12 05:56:14;;;;;;;43.05;30.38;;;;;;;4.20;100.00;101814.16;5239261;28;20041;-69
2021/11/12 05:58:46;;;;;;;44.13;29.02;;;;;;;4.28;100.00;101827.66;5238792;28;20352;-69
2021/11/12 06:01:17;;;;;;;54.30;28.27;;;;;;;4.19;100.00;101838.44;5241164;28;20079;-69
2021/11/12 06:03:49;;;;;;;45.10;27.83;;;;;;;4.16;100.00;101831.59;5239251;28;20029;-69
2021/11/12 06:06:21;;;;;;;45.22;26.48;;;;;;;4.11;100.00;101829.22;5240225;28;20856;-69
2021/11/12 06:08:52;;;;;;;40.70;26.95;;;;;;;4.05;100.00;101819.13;5241510;28;20117;-69
2021/11/12 06:11:23;;;;;;;48.70;26.67;;;;;;;4.02;100.00;101816.66;5239655;28;20086;-69
2021/11/12 06:13:56;;;;;;;42.95;25.70;;;;;;;3.96;100.00;101816.06;5240739;28;20021;-69
2021/11/12 06:16:28;;;;;;;48.75;25.50;;;;;;;3.94;100.00;101810.06;5244317;28;20040;-69
2021/11/12 06:18:59;;;;;;;45.85;26.10;;;;;;;3.94;100.00;101812.66;5218463;28;20459;-69
2021/11/12 06:21:31;;;;;;;47.13;26.67;;;;;;;3.88;100.00;101811.19;5217834;28;20492;-69
2021/11/12 06:24:03;;;;;;;39.38;25.55;;;;;;;3.89;100.00;101815.47;5239607;28;20056;-69
2021/11/12 06:26:34;;;;;;;37.70;25.55;;;;;;;3.84;100.00;101827.78;5243148;28;20029;-69
2021/11/12 06:29:07;;;;;;;40.80;26.75;;;;;;;3.84;100.00;101825.19;5237509;28;20060;-69
2021/11/12 06:31:38;;;;;;;35.60;25.73;;;;;;;3.86;100.00;101831.13;5239642;28;20032;-69
2021/11/12 06:34:10;;;;;;;49.58;25.50;;;;;;;3.83;100.00;101839.91;5239340;28;20383;-69
2021/11/12 06:36:41;;;;;;;39.20;25.63;;;;;;;3.82;100.00;101839.94;5241587;28;20079;-69
2021/11/12 06:39:14;;;;;;;39.13;24.88;;;;;;;3.82;100.00;101850.31;5241232;28;20467;-69
2021/11/12 06:52:17;;;;;;;51.85;24.50;;;;;;;3.73;100.00;101830.78;5239081;28;20408;-69
2021/11/12 06:54:49;;;;;;;39.38;24.05;;;;;;;3.68;100.00;101824.13;5241469;28;20025;-68
2021/11/12 06:57:22;;;;;;;35.97;24.08;;;;;;;3.72;100.00;101821.34;5242994;28;20029;-68
2021/11/12 06:59:54;;;;;;;39.75;23.83;;;;;;;3.70;100.00;101815.38;5241825;28;20041;-68
2021/11/12 07:02:25;;;;;;;42.50;24.02;;;;;;;3.66;100.00;101824.16;5241736;28;20515;-68
2021/11/12 07:04:57;;;;;;;37.40;23.70;;;;;;;3.63;100.00;101824.28;5237044;28;21505;-68
2021/11/12 07:07:28;;;;;;;33.20;23.80;;;;;;;3.65;100.00;101823.34;5240016;28;20064;-68
2021/11/12 07:10:00;;;;;;;34.20;23.90;;;;;;;3.65;100.00;101812.97;5240736;28;20040;-68
2021/11/12 07:12:31;;;;;;;37.13;22.95;;;;;;;3.58;100.00;101801.16;5240780;28;20036;-68
2021/11/12 07:15:04;;;;;;;32.28;23.08;;;;;;;3.55;100.00;101809.03;5241093;28;20029;-68
2021/11/12 07:17:37;;;;;;;37.35;23.17;;;;;;;3.52;100.00;101816.94;5240782;28;20443;-68
2021/11/12 07:20:08;;;;;;;;;;;;;;;4.04;100.00;101807.03;5241997;28;20056;-68
2021/11/12 07:22:44;;;;;;;40.00;23.85;;;;;;;3.60;100.00;101820.09;5239839;28;19959;-68
2021/11/12 07:25:15;;;;;;;34.47;23.02;;;;;;;3.53;100.00;101808.28;5221366;28;20040;-68
2021/11/12 07:27:48;;;;;;;37.40;23.60;;;;;;;3.50;100.00;101805.81;5242500;28;20025;-68
2021/11/12 07:30:20;;;;;;;33.90;22.75;;;;;;;3.48;100.00;101796.41;5242465;28;20128;-68
2021/11/12 07:32:52;;;;;;;33.72;21.95;;;;;;;3.45;100.00;101797.38;5241260;28;20453;-68
2021/11/12 07:35:28;;;;;;;33.40;24.08;;;;;;;3.37;100.00;101789.91;5240141;28;20037;-68
2021/11/12 07:38:09;;;;;;;36.08;24.13;;;;;;;3.41;100.00;101788.88;5240654;28;20052;-68
2021/11/12 07:48:48;;;;;;;34.42;24.02;;;;;;;3.40;100.00;101765.63;5241536;28;20045;-68
2021/11/12 07:51:19;;;;;;;37.28;23.88;;;;;;;3.44;100.00;101763.75;5237112;28;20047;-68
2021/11/12 07:53:50;;;;;;;35.75;24.52;;;;;;;3.40;100.00;101750.09;5239226;28;20044;-68
2021/11/12 07:56:23;;;;;;;35.00;23.08;;;;;;;3.50;100.00;101751.41;5240123;28;20041;-69
2021/11/12 07:58:55;;;;;;;36.28;25.42;;;;;;;3.57;100.00;101750.25;5241835;28;20055;-68
2021/11/12 08:01:27;;;;;;;36.15;24.73;;;;;;;3.57;100.00;101762.38;5238734;28;20503;-68
2021/11/12 08:04:01;;;;;;;34.83;24.58;;;;;;;3.61;100.00;101764.75;5238391;28;20029;-68
2021/11/12 08:06:34;;;;;;;35.97;24.95;;;;;;;3.66;100.00;101755.03;5241441;28;20128;-68
2021/11/12 08:09:12;;;;;;;37.13;25.73;;;;;;;3.73;100.00;101749.63;5239755;28;20089;-68
2021/11/12 08:11:51;;;;;;;35.92;24.70;;;;;;;3.75;100.00;101747.78;5239600;28;20402;-68
2021/11/12 08:14:29;;;;;;;36.30;25.70;;;;;;;3.72;100.00;101741.00;5240452;28;20147;-68
2021/11/12 08:19:46;;;;;;;34.80;25.42;;;;;;;3.84;100.00;101755.19;5239852;28;20132;-68
2021/11/12 08:22:27;;;;;;;37.13;25.92;;;;;;;3.87;100.00;101749.88;5239918;28;20030;-68
2021/11/12 08:25:22;;;;;;;38.92;24.80;;;;;;;3.95;100.00;101768.53;5240042;28;20029;-68
2021/11/12 08:33:32;;;;;;;35.22;24.25;;;;;;;4.06;100.00;101766.34;5237275;28;20033;-68
2021/11/12 08:36:22;;;;;;;37.67;25.20;;;;;;;4.10;100.00;101762.72;5239676;28;20029;-68
2021/11/12 08:40:05;;;;;;;38.45;25.70;;;;;;;4.19;100.00;101756.28;5239472;28;20383;-68
2021/11/12 08:42:08;;;;;;;37.28;26.83;;;;;;;4.24;100.00;101728.38;5232507;28;20033;-68
2021/11/12 08:44:45;;;;;;;34.58;23.42;;;;;;;4.26;100.00;101723.97;5240599;28;20048;-68
2021/11/12 08:50:12;;;;;;;35.88;24.83;;;;;;;4.29;100.00;101694.47;5238343;28;20072;-68
2021/11/12 08:52:46;;;;;;;34.42;24.20;;;;;;;4.38;100.00;101705.25;5239682;28;20053;-68
2021/11/12 08:55:25;;;;;;;35.55;24.98;;;;;;;4.37;100.00;101702.75;5240615;28;20083;-68
2021/11/12 08:57:57;;;;;;;32.25;24.02;;;;;;;4.40;100.00;101720.78;5220565;28;20124;-68
2021/11/12 09:00:29;;;;;;;33.65;24.88;;;;;;;4.46;100.00;101725.66;5242536;28;20032;-68
2021/11/12 09:03:01;;;;;;;34.88;23.65;;;;;;;4.49;100.00;101722.09;5241365;28;20480;-68
2021/11/12 09:05:34;;;;;;;31.02;23.73;;;;;;;4.49;100.00;101714.31;5243638;28;20098;-68
2021/11/12 09:08:05;;;;;;;36.25;24.48;;;;;;;4.53;100.00;101695.09;5244522;28;20080;-68
2021/11/12 09:10:37;;;;;;;33.47;24.73;;;;;;;4.63;100.00;101691.19;5243291;28;20037;-68
2021/11/12 09:13:24;;;;;;;39.00;24.98;;;;;;;4.68;100.00;101681.41;5242875;28;20021;-68
2021/11/12 09:16:04;;;;;;;35.90;26.75;;;;;;;4.74;100.00;101686.34;5242104;28;20040;-68
2021/11/12 09:18:35;;;;;;;36.10;25.27;;;;;;;4.79;100.00;101702.53;5243494;28;20029;-68
2021/11/12 09:21:06;;;;;;;36.70;26.83;;;;;;;4.86;100.00;101701.31;5241615;28;20036;-67
2021/11/12 09:23:39;;;;;;;36.50;26.65;;;;;;;4.90;100.00;101699.44;5244608;28;20043;-67
2021/11/12 09:26:11;;;;;;;40.13;26.08;;;;;;;4.99;100.00;101692.94;5245230;28;20028;-67
2021/11/12 09:28:43;;;;;;;40.00;26.53;;;;;;;5.08;100.00;101685.56;5242584;28;20514;-67
2021/11/12 09:31:16;;;;;;;35.00;26.27;;;;;;;5.12;100.00;101673.28;5243355;28;20025;-67
2021/11/12 09:33:47;;;;;;;34.22;26.35;;;;;;;5.20;100.00;101670.31;5241995;28;20551;-67
2021/11/12 09:36:18;;;;;;;38.15;26.30;;;;;;;5.25;100.00;101663.94;5244008;28;20025;-67
2021/11/12 09:38:50;;;;;;;35.15;25.55;;;;;;;5.33;100.00;101653.19;5243886;28;20035;-69
2021/11/12 09:41:21;;;;;;;35.72;26.38;;;;;;;5.39;100.00;101650.28;5240747;28;20451;-69
2021/11/12 09:43:53;;;;;;;35.95;26.27;;;;;;;5.42;100.00;101662.25;5243586;28;20025;-69
2021/11/12 09:46:25;;;;;;;35.63;26.88;;;;;;;5.52;100.00;101674.72;5241951;28;20065;-67
2021/11/12 09:48:59;;;;;;;38.33;28.08;;;;;;;5.61;100.00;101669.06;5241544;28;20033;-68
2021/11/12 09:51:31;;;;;;;37.42;28.13;;;;;;;5.69;100.00;101678.25;5244105;28;20103;-68
2021/11/12 09:54:03;;;;;;;37.22;25.73;;;;;;;5.77;100.00;101658.72;5240638;28;20176;-68
2021/11/12 09:56:34;;;;;;;37.50;27.20;;;;;;;5.87;100.00;101661.66;5239836;28;20038;-68
2021/11/12 09:59:06;;;;;;;36.08;26.63;;;;;;;5.97;100.00;101665.53;5242777;28;20025;-68
2021/11/12 10:01:40;;;;;;;38.50;26.88;;;;;;;6.04;100.00;101656.47;5242198;28;20071;-67
2021/11/12 10:04:11;;;;;;;39.35;26.73;;;;;;;6.19;100.00;101641.81;5242206;28;20030;-67
2021/11/12 10:06:43;;;;;;;37.10;27.02;;;;;;;6.28;100.00;101637.88;5243222;28;20387;-67
2021/11/12 10:09:17;;;;;;;36.03;26.20;;;;;;;6.34;100.00;101627.97;5242450;28;20558;-68
2021/11/12 10:11:52;;;;;;;39.05;26.88;;;;;;;6.50;100.00;101630.56;5244593;28;20541;-67
2021/11/12 10:15:03;;;;;;;37.00;26.20;;;;;;;6.73;100.00;101618.88;5240712;28;20086;-67
2021/11/12 10:17:33;;;;;;;34.92;25.95;;;;;;;6.68;100.00;101612.25;5239521;28;20029;-68
2021/11/12 10:20:12;;;;;;;37.67;26.92;;;;;;;6.86;100.00;101616.44;5241055;28;20021;-68
2021/11/12 10:22:46;;;;;;;37.10;26.67;;;;;;;6.89;100.00;101610.19;5242332;28;20429;-68
2021/11/12 10:25:19;;;;;;;35.80;25.00;;;;;;;6.99;100.00;101611.34;5240517;28;20039;-68
2021/11/12 10:27:51;;;;;;;34.80;26.27;;;;;;;7.07;100.00;101594.34;5241371;28;20040;-68
2021/11/12 10:30:28;;;;;;;37.13;26.17;;;;;;;7.21;100.00;101598.75;5240132;28;20649;-68
2021/11/12 10:32:59;;;;;;;36.00;24.98;;;;;;;7.28;100.00;101584.44;5243638;28;20033;-68
2021/11/12 10:35:31;;;;;;;34.83;25.85;;;;;;;7.34;100.00;101588.44;5240409;28;20424;-68
2021/11/12 10:38:10;;;;;;;35.78;25.20;;;;;;;7.56;100.00;101583.63;5240877;28;20049;-68
2021/11/12 10:40:42;;;;;;;34.17;24.50;;;;;;;7.54;100.00;101584.66;5240338;28;20268;-68
2021/11/12 10:43:22;;;;;;;33.25;24.17;;;;;;;7.72;100.00;101572.25;5239278;28;20155;-68
2021/11/12 10:46:06;;;;;;;35.25;25.45;;;;;;;7.85;100.00;101573.19;5241652;28;20039;-68
2021/11/12 10:48:39;;;;;;;32.38;24.50;;;;;;;7.87;100.00;101575.69;5241800;28;20032;-68
2021/11/12 10:51:15;;;;;;;33.70;24.67;;;;;;;8.01;100.00;101558.25;5243048;28;20104;-68
2021/11/12 10:53:50;;;;;;;34.15;25.38;;;;;;;8.04;100.00;101558.06;5240499;28;20045;-68
2021/11/12 10:56:21;;;;;;;35.92;25.55;;;;;;;8.10;100.00;101556.84;5241016;28;20022;-68
2021/11/12 10:59:03;;;;;;;32.95;24.73;;;;;;;8.24;100.00;101564.63;5241155;28;20044;-68
2021/11/12 11:01:36;;;;;;;32.72;23.83;;;;;;;8.25;100.00;101562.84;5240029;28;20090;-68
2021/11/12 11:04:19;;;;;;;35.78;24.25;;;;;;;8.41;100.00;101553.16;5240921;28;20100;-68
2021/11/12 11:06:50;;;;;;;34.58;24.90;;;;;;;8.42;100.00;101560.06;5241070;28;20482;-68
2021/11/12 11:09:37;;;;;;;33.33;24.42;;;;;;;8.65;100.00;101555.94;5240953;28;20048;-68
2021/11/12 11:12:28;;;;;;;33.05;24.50;;;;;;;8.55;100.00;101548.81;5241408;28;20771;-69
2021/11/12 11:15:22;;;;;;;31.77;24.00;;;;;;;8.92;100.00;101542.84;5237931;28;20052;-68
2021/11/12 11:18:22;;;;;;;36.35;25.90;;;;;;;9.10;100.00;101550.41;5239803;28;20024;-68
2021/11/12 11:23:57;;;;;;;31.67;23.90;;;;;;;9.19;100.00;101536.69;5239737;28;20454;-68
2021/11/12 11:26:37;;;;;;;31.77;22.80;;;;;;;9.32;100.00;101537.53;5231305;28;20118;-68
2021/11/12 11:29:11;;;;;;;33.55;24.92;;;;;;;9.37;100.00;101530.22;5241945;28;20500;-68
2021/11/12 11:31:43;;;;;;;29.23;23.50;;;;;;;9.45;100.00;101519.22;5240742;28;20033;-68
2021/11/12 11:34:15;;;;;;;34.35;24.77;;;;;;;9.58;100.00;101512.19;5240141;28;20055;-68
2021/11/12 11:36:48;;;;;;;29.08;22.75;;;;;;;9.65;100.00;101500.34;5239165;28;20179;-68
2021/11/12 11:39:19;;;;;;;30.15;22.90;;;;;;;9.83;100.00;101507.84;5238705;28;20029;-68
2021/11/12 11:41:51;;;;;;;28.27;21.40;;;;;;;9.87;100.00;101510.13;5239004;28;20037;-68
2021/11/12 11:44:22;;;;;;;27.63;20.85;;;;;;;9.99;100.00;101498.78;5235653;28;20028;-68
2021/11/12 11:47:01;;;;;;;28.80;21.67;;;;;;;10.16;100.00;101492.34;5240157;28;20084;-69
2021/11/12 11:49:35;;;;;;;32.00;22.33;;;;;;;10.23;100.00;101488.34;5239160;28;20029;-68
2021/11/12 11:52:12;;;;;;;27.90;21.35;;;;;;;10.36;100.00;101488.28;5239331;28;20031;-69
2021/11/12 11:54:46;;;;;;;26.95;20.65;;;;;;;10.41;100.00;101482.69;5241907;28;20041;-69
2021/11/12 11:57:22;;;;;;;28.13;20.70;;;;;;;10.47;100.00;101479.66;5237241;28;20025;-68
2021/11/12 12:00:27;;;;;;;24.95;19.48;;;;;;;10.72;100.00;101470.78;5239730;28;20057;-68
2021/11/12 12:03:21;;;;;;;26.42;19.80;;;;;;;10.77;100.00;101459.97;5228041;28;20269;-67
2021/11/12 12:06:09;;;;;;;26.75;20.02;;;;;;;10.80;100.00;101460.56;5239994;28;20037;-67
2021/11/12 12:09:03;;;;;;;27.58;20.25;;;;;;;10.75;100.00;101451.38;5235786;28;20044;-68
2021/11/12 12:11:49;;;;;;;25.13;18.33;;;;;;;10.93;100.00;101449.97;5238793;28;20091;-68
2021/11/12 12:14:29;;;;;;;24.05;18.05;;;;;;;10.82;100.00;101442.91;5239135;28;20029;-68
2021/11/12 12:17:09;;;;;;;22.42;17.65;;;;;;;10.79;100.00;101427.41;5238854;28;20025;-68
2021/11/12 12:19:54;;;;;;;21.98;17.63;;;;;;;10.88;100.00;101431.97;5238243;28;20067;-68
2021/11/12 13:21:00;;;;;;;21.08;15.55;;;;;;;11.16;100.00;101364.28;5243765;28;20061;-69
2021/11/12 13:23:44;;;;;;;19.65;15.77;;;;;;;11.22;100.00;101370.84;5242567;28;20048;-68
2021/11/12 13:26:15;;;;;;;20.17;15.70;;;;;;;11.24;100.00;101367.13;5242908;28;20137;-69
2021/11/12 13:28:48;;;;;;;23.77;16.20;;;;;;;11.22;100.00;101361.16;5243349;28;20030;-69
2021/11/12 13:31:23;;;;;;;19.35;15.60;;;;;;;11.30;100.00;101353.53;5239821;28;20082;-70
2021/11/12 13:33:57;;;;;;;19.25;15.23;;;;;;;11.21;100.00;101349.00;5239071;28;20543;-69
2021/11/12 13:36:35;;;;;;;19.90;14.90;;;;;;;11.26;100.00;101349.47;5239598;28;20037;-69
2021/11/12 13:39:19;;;;;;;17.98;14.73;;;;;;;11.26;100.00;101341.63;5240726;28;20022;-68
2021/11/12 13:41:54;;;;;;;18.25;13.88;;;;;;;11.21;100.00;101330.63;5242712;28;20034;-69
2021/11/12 13:44:32;;;;;;;20.02;15.27;;;;;;;11.29;100.00;101328.25;5238008;28;20399;-69
2021/11/12 13:47:07;;;;;;;23.33;15.35;;;;;;;11.24;100.00;101322.53;5239752;28;20033;-68
2021/11/12 13:49:47;;;;;;;21.50;14.13;;;;;;;11.33;100.00;101321.81;5237284;28;20064;-68
2021/11/12 13:52:27;;;;;;;20.40;14.65;;;;;;;11.26;100.00;101322.41;5240396;28;20021;-69
2021/11/12 13:55:11;;;;;;;19.13;13.43;;;;;;;11.30;100.00;101321.22;5240623;28;20056;-69
2021/11/12 13:57:54;;;;;;;19.70;13.85;;;;;;;11.36;100.00;101318.09;5243248;28;20029;-69
2021/11/12 14:00:28;;;;;;;19.00;14.45;;;;;;;11.20;100.00;101303.56;5241777;28;20032;-68
2021/11/12 14:03:06;;;;;;;18.50;14.85;;;;;;;11.17;100.00;101295.97;5233249;28;20033;-69
2021/11/12 14:05:51;;;;;;;20.15;15.30;;;;;;;11.17;100.00;101297.75;5240781;28;20036;-69
2021/11/12 14:08:32;;;;;;;19.45;13.40;;;;;;;11.31;100.00;101291.41;5239781;28;20061;-68
2021/11/12 14:11:16;;;;;;;47.45;34.35;;;;;;;11.34;100.00;101291.16;5243096;28;20810;-69
2021/11/12 14:13:49;;;;;;;1252.57;902.78;;;;;;;11.30;100.00;101287.13;5236701;28;20057;-68
2021/11/12 14:16:31;;;;;;;1999.90;999.90;;;;;;;11.49;100.00;101282.03;5240273;28;20037;-70
2021/11/12 14:22:02;;;;;;;136.10;108.57;;;;;;;11.41;100.00;101272.16;5241932;28;20530;-69
2021/11/12 14:24:40;;;;;;;51.72;39.65;;;;;;;11.33;100.00;101271.97;5239633;28;20055;-69
2021/11/12 14:27:25;;;;;;;27.23;20.50;;;;;;;11.70;100.00;101263.69;5239277;28;20037;-69
2021/11/12 14:40:39;;;;;;;19.50;14.93;;;;;;;11.82;100.00;101232.94;5238041;28;20008;-69
2021/11/12 14:46:27;;;;;;;20.17;13.63;;;;;;;11.79;100.00;101228.81;5224586;28;20036;-69
2021/11/12 14:49:15;;;;;;;17.55;14.07;;;;;;;11.51;100.00;101238.13;5232252;28;20037;-69
2021/11/12 14:52:06;;;;;;;18.55;12.95;;;;;;;11.39;100.00;101231.28;5241603;28;20588;-69
2021/11/12 14:54:49;;;;;;;18.35;13.45;;;;;;;11.49;100.00;101239.22;5238318;28;20053;-69
2021/11/12 15:00:08;;;;;;;17.63;13.63;;;;;;;11.28;100.00;101234.75;5238507;28;20041;-68
2021/11/12 15:02:41;;;;;;;17.45;12.52;;;;;;;11.28;100.00;101241.81;5239190;28;20021;-69
2021/11/12 15:05:14;;;;;;;19.30;13.60;;;;;;;11.23;100.00;101218.59;5238463;28;20029;-69
2021/11/12 15:07:53;;;;;;;17.42;13.55;;;;;;;11.19;100.00;101219.78;5236664;28;20025;-69
2021/11/12 15:10:28;;;;;;;20.08;13.40;;;;;;;11.16;100.00;101218.25;5240522;28;20025;-69
2021/11/12 15:13:00;;;;;;;20.42;13.98;;;;;;;11.15;100.00;101227.06;5239418;28;20023;-69
2021/11/12 15:15:31;;;;;;;20.05;14.57;;;;;;;11.16;100.00;101209.53;5236754;28;20037;-69
2021/11/12 15:18:05;;;;;;;18.40;13.85;;;;;;;11.12;100.00;101210.75;5236376;28;20049;-69
2021/11/12 15:20:39;;;;;;;17.98;13.95;;;;;;;11.07;100.00;101200.66;5240215;28;20029;-70
2021/11/12 15:26:09;;;;;;;17.90;13.60;;;;;;;11.01;100.00;101189.81;5235515;28;20032;-69
2021/11/12 15:33:46;;;;;;;17.27;12.85;;;;;;;10.96;100.00;101170.06;5240480;28;20037;-68
2021/11/12 15:36:18;;;;;;;20.02;14.25;;;;;;;10.92;100.00;101176.50;5237789;28;20041;-69
2021/11/12 15:44:27;;;;;;;17.48;13.55;;;;;;;10.85;100.00;101170.09;5207396;28;20619;-71
2021/11/12 15:47:15;;;;;;;17.98;14.02;;;;;;;10.81;100.00;101157.34;5233545;28;20108;-71
2021/11/12 15:49:46;;;;;;;16.73;12.98;;;;;;;10.78;100.00;101145.31;5232733;28;20087;-71
2021/11/12 15:52:23;;;;;;;19.70;13.07;;;;;;;10.77;100.00;101143.66;5230856;28;20029;-71
2021/11/12 15:58:09;;;;;;;19.67;12.60;;;;;;;10.60;100.00;101131.91;5230538;28;20045;-69
2021/11/12 16:06:27;;;;;;;;;;;;;;;11.14;100.00;101143.28;5233352;28;20131;-69
2021/11/12 16:09:00;;;;;;;17.92;12.15;;;;;;;10.53;100.00;101127.28;5236285;28;19917;-69
2021/11/12 16:11:38;;;;;;;17.33;13.05;;;;;;;10.47;100.00;101134.69;5234224;28;20085;-69
2021/11/12 16:24:47;;;;;;;17.52;12.88;;;;;;;10.28;100.00;101126.63;5233960;28;20037;-67
2021/11/12 16:27:19;;;;;;;21.67;13.35;;;;;;;10.24;100.00;101130.41;5236349;28;20028;-68
2021/11/12 16:29:53;;;;;;;19.92;12.57;;;;;;;10.16;100.00;101130.19;5235485;28;20033;-71
2021/11/12 16:32:30;;;;;;;23.08;12.82;;;;;;;10.14;100.00;101119.00;5236137;28;20120;-71
2021/11/12 16:35:02;;;;;;;17.38;13.50;;;;;;;10.10;100.00;101123.63;5235482;28;20034;-71
2021/11/12 16:37:33;;;;;;;22.50;13.32;;;;;;;10.06;100.00;101137.09;5217237;28;20116;-71
2021/11/12 16:40:12;;;;;;;22.23;13.05;;;;;;;10.08;100.00;101141.25;5236367;28;20033;-70